createdAt,value
2022-08-22T00:06:16.881Z,22.35
2022-08-22T00:09:37.141Z,22.35
2022-08-22T00:12:29.569Z,22.34
2022-08-22T00:15:42.498Z,22.34
2022-08-22T00:18:27.074Z,22.34
2022-08-22T00:21:17.137Z,22.33
2022-08-22T00:24:01.602Z,22.34
2022-08-22T00:26:55.121Z,22.32
2022-08-22T00:29:42.239Z,22.32
2022-08-22T00:32:27.492Z,22.33
2022-08-22T00:35:23.372Z,22.32
2022-08-22T00:38:27.744Z,22.31
2022-08-22T00:41:07.434Z,22.29
2022-08-22T00:44:11.174Z,22.30
2022-08-22T00:47:00.248Z,22.32
2022-08-22T00:50:08.016Z,22.30
2022-08-22T00:52:58.828Z,22.29
2022-08-22T00:56:21.891Z,22.30
2022-08-22T00:59:24.080Z,22.30
2022-08-22T01:02:03.241Z,22.29
2022-08-22T01:05:10.132Z,22.30
2022-08-22T01:08:16.442Z,22.29
2022-08-22T01:11:18.769Z,22.29
2022-08-22T01:14:41.661Z,22.28
2022-08-22T01:17:45.249Z,22.28
2022-08-22T01:20:44.791Z,22.28
2022-08-22T01:23:45.173Z,22.27
2022-08-22T01:26:52.793Z,22.27
2022-08-22T01:30:18.014Z,22.27
2022-08-22T01:33:30.631Z,22.26
2022-08-22T01:36:32.160Z,22.26
2022-08-22T01:39:35.025Z,22.26
2022-08-22T01:42:41.645Z,22.26
2022-08-22T01:45:14.016Z,22.25
2022-08-22T01:48:06.593Z,22.25
2022-08-22T01:51:11.832Z,22.25
2022-08-22T01:54:26.553Z,22.24
2022-08-22T01:57:05.610Z,22.24
2022-08-22T01:59:42.676Z,22.24
2022-08-22T02:02:50.165Z,22.24
2022-08-22T02:05:37.229Z,22.22
2022-08-22T02:08:42.568Z,22.23
2022-08-22T02:11:50.636Z,22.23
2022-08-22T02:14:43.494Z,22.23
2022-08-22T02:17:28.878Z,22.23
2022-08-22T02:20:24.141Z,22.22
2022-08-22T02:23:49.896Z,22.21
2022-08-22T02:26:39.549Z,22.22
2022-08-22T02:29:40.333Z,22.21
2022-08-22T02:32:30.050Z,22.21
2022-08-22T02:35:28.960Z,22.21
2022-08-22T02:38:21.329Z,22.20
2022-08-22T02:41:15.676Z,22.20
2022-08-22T02:43:57.515Z,22.20
2022-08-22T02:46:39.895Z,22.19
2022-08-22T02:49:43.964Z,22.19
2022-08-22T02:52:29.533Z,22.20
2022-08-22T02:55:15.768Z,22.19
2022-08-22T02:58:04.208Z,22.19
2022-08-22T03:01:20.844Z,22.19
2022-08-22T03:04:31.170Z,22.19
2022-08-22T03:07:13.405Z,22.19
2022-08-22T03:10:13.596Z,22.18
2022-08-22T03:13:00.432Z,22.18
2022-08-22T03:15:48.494Z,22.17
2022-08-22T03:18:56.214Z,22.18
2022-08-22T03:21:37.384Z,22.17
2022-08-22T03:24:27.527Z,22.15
2022-08-22T03:27:14.034Z,22.19
2022-08-22T03:30:10.112Z,22.19
2022-08-22T03:33:13.125Z,22.17
2022-08-22T03:35:45.514Z,22.18
2022-08-22T03:38:37.601Z,22.19
2022-08-22T03:41:31.778Z,22.18
2022-08-22T03:44:16.172Z,22.17
2022-08-22T03:47:16.809Z,22.13
2022-08-22T03:49:59.600Z,22.18
2022-08-22T04:04:10.993Z,24.57
2022-08-22T04:06:53.683Z,24.29
2022-08-22T04:24:10.733Z,20.43
2022-08-22T04:27:10.656Z,19.15
2022-08-22T04:29:58.211Z,18.16
2022-08-22T04:32:44.962Z,17.34
2022-08-22T04:35:50.727Z,16.68
2022-08-22T04:38:41.188Z,16.06
2022-08-22T04:41:41.537Z,15.69
2022-08-22T04:44:27.961Z,15.35
2022-08-22T04:47:36.302Z,15.14
2022-08-22T04:50:42.597Z,14.94
2022-08-22T04:53:59.798Z,14.86
2022-08-22T04:56:51.073Z,14.79
2022-08-22T04:59:25.365Z,14.78
2022-08-22T05:02:06.378Z,14.78
2022-08-22T05:04:47.829Z,14.77
2022-08-22T05:07:37.102Z,14.77
2022-08-22T05:10:26.650Z,14.80
2022-08-22T05:13:32.562Z,14.85
2022-08-22T05:16:15.981Z,14.88
2022-08-22T05:18:56.347Z,14.93
2022-08-22T05:21:36.581Z,15.00
2022-08-22T05:24:48.399Z,15.09
2022-08-22T05:27:39.081Z,15.16
2022-08-22T05:30:24.886Z,15.22
2022-08-22T05:33:09.528Z,15.27
2022-08-22T05:36:00.221Z,15.34
2022-08-22T05:38:40.065Z,15.40
2022-08-22T05:41:23.725Z,15.45
2022-08-22T05:43:56.441Z,15.50
2022-08-22T05:46:57.436Z,15.57
2022-08-22T05:49:38.779Z,15.63
2022-08-22T05:53:23.344Z,15.71
2022-08-22T05:56:10.749Z,15.78
2022-08-22T05:58:51.862Z,15.84
2022-08-22T06:01:51.956Z,15.87
2022-08-22T06:04:35.848Z,15.95
2022-08-22T06:07:25.842Z,16.01
2022-08-22T06:10:21.729Z,16.13
2022-08-22T06:13:11.478Z,16.24
2022-08-22T06:16:39.421Z,16.39
2022-08-22T06:19:20.981Z,16.50
2022-08-22T06:21:55.323Z,16.63
2022-08-22T06:24:28.549Z,16.74
2022-08-22T06:27:12.707Z,16.86
2022-08-22T06:29:51.034Z,17.00
2022-08-22T06:32:58.564Z,17.11
2022-08-22T06:36:03.262Z,17.26
2022-08-22T06:39:02.501Z,17.37
2022-08-22T06:41:45.973Z,17.45
2022-08-22T06:44:25.997Z,17.57
2022-08-22T06:47:03.367Z,17.67
2022-08-22T06:49:40.457Z,17.79
2022-08-22T06:52:22.381Z,17.79
2022-08-22T06:55:05.788Z,17.71
2022-08-22T06:58:30.861Z,17.79
2022-08-22T07:01:13.978Z,17.74
2022-08-22T07:04:05.221Z,17.94
2022-08-22T07:06:50.525Z,17.99
2022-08-22T07:09:25.763Z,18.06
2022-08-22T07:12:10.910Z,18.11
2022-08-22T07:14:49.459Z,18.07
2022-08-22T07:17:28.496Z,18.12
2022-08-22T07:20:31.410Z,18.17
2022-08-22T07:23:12.354Z,18.18
2022-08-22T07:26:03.092Z,18.18
2022-08-22T07:28:58.377Z,18.29
2022-08-22T07:31:49.827Z,18.36
2022-08-22T07:35:05.541Z,18.63
2022-08-22T07:37:59.746Z,18.80
2022-08-22T07:40:42.519Z,19.19
2022-08-22T07:43:35.346Z,19.45
2022-08-22T07:46:33.889Z,19.74
2022-08-22T07:49:33.772Z,20.04
2022-08-22T07:52:13.628Z,20.35
2022-08-22T07:54:57.968Z,20.67
2022-08-22T07:57:38.166Z,20.87
2022-08-22T08:00:21.874Z,21.16
2022-08-22T08:03:01.524Z,21.31
2022-08-22T08:05:40.817Z,21.37
2022-08-22T08:08:37.633Z,21.48
2022-08-22T08:11:16.588Z,21.38
2022-08-22T08:14:04.185Z,21.44
2022-08-22T08:17:03.872Z,21.42
2022-08-22T08:19:41.532Z,21.48
2022-08-22T08:22:20.180Z,21.49
2022-08-22T08:24:58.608Z,21.47
2022-08-22T08:27:55.532Z,21.59
2022-08-22T08:30:43.410Z,21.85
2022-08-22T08:33:26.231Z,22.01
2022-08-22T08:36:34.332Z,22.12
2022-08-22T08:39:20.066Z,22.20
2022-08-22T08:42:01.376Z,22.34
2022-08-22T08:45:44.945Z,22.52
2022-08-22T08:49:55.336Z,22.63
2022-08-22T08:52:52.663Z,22.77
2022-08-22T08:55:48.050Z,23.00
2022-08-22T09:02:45.448Z,23.08
2022-08-22T09:05:49.081Z,23.08
2022-08-22T09:09:02.871Z,23.33
2022-08-22T09:12:06.807Z,23.15
2022-08-22T09:15:31.412Z,23.13
2022-08-22T09:18:50.958Z,23.26
2022-08-22T09:22:24.004Z,23.45
2022-08-22T09:25:36.781Z,23.59
2022-08-22T09:28:31.393Z,23.70
2022-08-22T09:31:47.695Z,23.77
2022-08-22T09:34:37.161Z,23.89
2022-08-22T09:37:46.361Z,24.03
2022-08-22T09:40:36.721Z,23.88
2022-08-22T09:43:35.376Z,24.20
2022-08-22T09:46:36.982Z,24.16
2022-08-22T09:49:23.409Z,24.03
2022-08-22T09:52:34.040Z,24.09
2022-08-22T09:55:44.920Z,24.25
2022-08-22T09:58:40.345Z,24.38
2022-08-22T10:01:59.406Z,24.32
2022-08-22T10:04:50.258Z,24.58
2022-08-22T10:08:06.266Z,24.58
2022-08-22T10:11:19.723Z,24.53
2022-08-22T10:14:01.496Z,24.39
2022-08-22T10:17:21.993Z,24.51
2022-08-22T10:20:03.612Z,24.62
2022-08-22T10:23:07.181Z,24.72
2022-08-22T10:25:51.775Z,24.76
2022-08-22T10:29:02.678Z,24.67
2022-08-22T10:31:58.984Z,24.88
2022-08-22T10:34:45.999Z,24.81
2022-08-22T10:37:48.010Z,24.90
2022-08-22T10:49:28.840Z,24.90
2022-08-22T10:52:17.329Z,24.88
2022-08-22T10:55:15.417Z,24.85
2022-08-22T10:58:26.879Z,24.78
2022-08-22T11:01:38.573Z,24.83
2022-08-22T11:04:34.317Z,25.07
2022-08-22T11:07:29.003Z,25.07
2022-08-22T11:10:14.101Z,25.34
2022-08-22T11:13:22.683Z,25.63
2022-08-22T11:16:17.357Z,25.73
2022-08-22T11:19:42.288Z,26.33
2022-08-22T11:22:35.560Z,26.81
2022-08-22T11:25:42.439Z,27.07
2022-08-22T11:28:38.058Z,27.20
2022-08-22T11:31:47.335Z,27.30
2022-08-22T11:34:56.510Z,27.03
2022-08-22T11:38:00.131Z,27.36
2022-08-22T11:40:38.467Z,27.44
2022-08-22T11:43:44.361Z,27.55
2022-08-22T11:46:20.078Z,27.35
2022-08-22T11:49:12.983Z,27.24
2022-08-22T11:52:15.094Z,27.24
2022-08-22T11:55:21.518Z,27.47
2022-08-22T11:58:03.090Z,27.60
2022-08-22T12:01:17.000Z,27.38
2022-08-22T12:04:04.340Z,27.26
2022-08-22T12:06:56.027Z,27.42
2022-08-22T12:09:41.389Z,27.60
2022-08-22T12:12:33.910Z,27.40
2022-08-22T12:15:40.852Z,27.60
2022-08-22T12:18:35.015Z,27.69
2022-08-22T12:21:26.623Z,27.76
2022-08-22T12:24:41.049Z,27.53
2022-08-22T12:27:50.620Z,27.52
2022-08-22T12:30:55.883Z,27.58
2022-08-22T12:33:55.589Z,27.37
2022-08-22T12:37:09.989Z,27.44
2022-08-22T12:40:36.656Z,27.27
2022-08-22T12:43:46.913Z,27.27
2022-08-22T12:46:47.458Z,27.18
2022-08-22T12:49:38.712Z,27.26
2022-08-22T12:52:35.889Z,27.41
2022-08-22T12:55:17.174Z,27.39
2022-08-22T12:58:25.164Z,27.26
2022-08-22T13:01:06.953Z,27.52
2022-08-22T13:03:55.978Z,27.55
2022-08-22T13:06:37.939Z,27.66
2022-08-22T13:09:20.697Z,27.41
2022-08-22T13:12:19.833Z,27.86
2022-08-22T13:15:01.371Z,28.18
2022-08-22T13:17:35.987Z,28.30
2022-08-22T13:20:38.961Z,28.52
2022-08-22T13:23:22.326Z,28.69
2022-08-22T13:26:08.054Z,28.50
2022-08-22T13:28:47.799Z,28.40
2022-08-22T13:31:28.215Z,28.26
2022-08-22T13:34:10.776Z,28.32
2022-08-22T13:36:51.921Z,28.31
2022-08-22T13:39:41.488Z,28.21
2022-08-22T13:42:30.441Z,28.10
2022-08-22T13:45:14.418Z,27.93
2022-08-22T13:47:59.215Z,27.39
2022-08-22T13:51:02.694Z,27.38
2022-08-22T13:54:02.197Z,27.47
2022-08-22T13:57:12.909Z,27.69
2022-08-22T14:00:05.780Z,27.82
2022-08-22T14:02:59.970Z,27.95
2022-08-22T14:05:43.385Z,28.17
2022-08-22T14:08:31.757Z,27.89
2022-08-22T14:11:17.545Z,28.14
2022-08-22T14:14:00.327Z,28.30
2022-08-22T14:16:47.859Z,28.12
2022-08-22T14:19:58.978Z,28.27
2022-08-22T14:22:37.511Z,28.13
2022-08-22T14:25:23.279Z,28.00
2022-08-22T14:28:06.500Z,28.08
2022-08-22T14:31:13.305Z,28.31
2022-08-22T14:33:51.064Z,28.22
2022-08-22T14:36:35.565Z,28.27
2022-08-22T14:39:36.779Z,28.49
2022-08-22T14:42:15.184Z,28.66
2022-08-22T14:45:10.179Z,28.62
2022-08-22T14:47:55.435Z,28.35
2022-08-22T14:50:53.072Z,28.37
2022-08-22T14:53:34.427Z,28.38
2022-08-22T14:56:21.919Z,28.27
2022-08-22T14:59:04.602Z,28.29
2022-08-22T15:02:26.325Z,28.11
2022-08-22T15:05:14.270Z,28.18
2022-08-22T15:08:01.492Z,28.41
2022-08-22T15:10:42.403Z,28.70
2022-08-22T15:13:25.231Z,28.87
2022-08-22T15:16:17.073Z,28.94
2022-08-22T15:18:51.835Z,28.81
2022-08-22T15:21:32.888Z,28.81
2022-08-22T15:24:15.103Z,29.04
2022-08-22T15:26:55.318Z,29.08
2022-08-22T15:29:36.388Z,29.43
2022-08-22T15:32:09.311Z,29.40
2022-08-22T15:34:45.877Z,29.52
2022-08-22T15:37:18.326Z,29.37
2022-08-22T15:40:14.225Z,29.79
2022-08-22T15:42:51.193Z,30.01
2022-08-22T15:45:38.077Z,30.18
2022-08-22T15:48:29.555Z,30.01
2022-08-22T15:51:30.503Z,30.02
2022-08-22T15:54:24.819Z,30.27
2022-08-22T15:57:10.027Z,30.60
2022-08-22T15:59:54.524Z,30.66
2022-08-22T16:02:53.590Z,30.99
2022-08-22T16:05:44.261Z,31.04
2022-08-22T16:08:44.064Z,30.67
2022-08-22T16:11:32.960Z,31.12
2022-08-22T16:14:49.973Z,31.03
2022-08-22T16:17:28.430Z,30.73
2022-08-22T16:20:19.304Z,30.23
2022-08-22T16:22:56.378Z,29.29
2022-08-22T16:25:50.142Z,28.84
2022-08-22T16:28:57.786Z,28.60
2022-08-22T16:31:37.210Z,28.14
2022-08-22T16:34:15.620Z,27.78
2022-08-22T16:37:14.640Z,27.60
2022-08-22T16:39:58.500Z,27.42
2022-08-22T16:43:09.787Z,27.98
2022-08-22T16:45:45.568Z,28.51
2022-08-22T16:48:37.515Z,29.28
2022-08-22T16:51:18.693Z,29.70
2022-08-22T16:54:13.022Z,30.16
2022-08-22T16:57:30.673Z,30.44
2022-08-22T17:00:26.296Z,30.53
2022-08-22T17:03:18.075Z,30.41
2022-08-22T17:06:23.819Z,30.72
2022-08-22T17:09:55.665Z,30.71
2022-08-22T17:12:49.952Z,30.82
2022-08-22T17:16:35.435Z,30.69
2022-08-22T17:19:51.454Z,30.82
2022-08-22T17:22:49.877Z,30.67
2022-08-22T17:25:46.930Z,30.81
2022-08-22T17:28:49.190Z,30.61
2022-08-22T17:31:39.401Z,30.22
2022-08-22T17:34:18.510Z,30.09
2022-08-22T17:37:26.031Z,30.22
2022-08-22T17:40:24.196Z,30.23
2022-08-22T17:43:15.319Z,29.67
2022-08-22T17:46:00.677Z,29.85
2022-08-22T17:48:39.353Z,29.86
2022-08-22T17:51:32.416Z,29.95
2022-08-22T17:54:32.447Z,29.71
2022-08-22T17:57:46.899Z,29.74
2022-08-22T18:00:35.672Z,29.48
2022-08-22T18:03:32.889Z,29.03
2022-08-22T18:06:11.582Z,28.48
2022-08-22T18:09:20.862Z,28.11
2022-08-22T18:12:03.020Z,27.67
2022-08-22T18:14:44.849Z,27.48
2022-08-22T18:17:49.552Z,27.36
2022-08-22T18:20:53.713Z,26.98
2022-08-22T18:23:40.591Z,26.57
2022-08-22T18:26:41.608Z,25.99
2022-08-22T18:29:19.065Z,25.73
2022-08-22T18:32:06.342Z,25.49
2022-08-22T18:35:13.758Z,25.18
2022-08-22T18:38:04.169Z,24.95
2022-08-22T18:41:08.525Z,24.72
2022-08-22T18:43:48.164Z,24.49
2022-08-22T18:46:39.079Z,24.30
2022-08-22T18:49:34.165Z,24.12
2022-08-22T18:52:09.414Z,23.97
2022-08-22T18:55:16.913Z,23.87
2022-08-22T18:58:12.787Z,23.76
2022-08-22T19:01:39.361Z,23.66
2022-08-22T19:04:29.998Z,23.54
2022-08-22T19:07:23.141Z,23.43
2022-08-22T19:10:27.783Z,23.26
2022-08-22T19:13:40.331Z,23.12
2022-08-22T19:16:28.309Z,23.05
2022-08-22T19:19:17.535Z,23.00
2022-08-22T19:22:30.307Z,22.96
2022-08-22T19:25:11.913Z,22.87
2022-08-22T19:28:07.603Z,22.81
2022-08-22T19:30:47.409Z,22.75
2022-08-22T19:33:41.857Z,22.67
2022-08-22T19:36:32.616Z,22.62
2022-08-22T19:39:10.003Z,22.56
2022-08-22T19:41:57.145Z,22.48
2022-08-22T19:44:38.152Z,22.41
2022-08-22T19:47:20.728Z,22.37
2022-08-22T19:50:08.194Z,22.30
2022-08-22T19:53:11.170Z,22.24
2022-08-22T19:56:04.905Z,22.17
2022-08-22T19:59:20.153Z,22.11
2022-08-22T20:02:16.448Z,22.06
2022-08-22T20:05:27.735Z,22.02
2022-08-22T20:08:36.593Z,21.98
2022-08-22T20:11:15.110Z,21.91
2022-08-22T20:13:48.649Z,21.88
2022-08-22T20:16:43.967Z,21.83
2022-08-22T20:19:21.279Z,21.79
2022-08-22T20:21:59.967Z,21.75
2022-08-22T20:24:44.449Z,21.72
2022-08-22T20:27:29.302Z,21.69
2022-08-22T20:30:18.701Z,21.69
2022-08-22T20:33:27.175Z,21.64
2022-08-22T20:36:05.672Z,21.61
2022-08-22T20:38:55.710Z,21.58
2022-08-22T20:41:40.872Z,21.54
2022-08-22T20:44:41.640Z,21.52
2022-08-22T20:47:25.964Z,21.46
2022-08-22T20:50:12.125Z,21.40
2022-08-22T20:52:54.254Z,21.36
2022-08-22T20:55:31.445Z,21.30
2022-08-22T20:58:22.007Z,21.23
2022-08-22T21:01:00.008Z,21.14
2022-08-22T21:03:50.627Z,21.06
2022-08-22T21:06:38.357Z,20.96
2022-08-22T21:09:39.495Z,20.86
2022-08-22T21:12:13.178Z,20.75
2022-08-22T21:14:46.153Z,20.66
2022-08-22T21:17:34.385Z,20.55
2022-08-22T21:20:21.339Z,20.44
2022-08-22T21:22:55.389Z,20.34
2022-08-22T21:25:27.933Z,20.25
2022-08-22T21:28:01.082Z,20.15
2022-08-22T21:30:35.921Z,20.06
2022-08-22T21:33:08.433Z,19.97
2022-08-22T21:35:40.986Z,19.86
2022-08-22T21:38:17.907Z,19.77
2022-08-22T21:40:50.716Z,19.70
2022-08-22T21:43:37.495Z,19.59
2022-08-22T21:46:10.074Z,19.51
2022-08-22T21:49:02.057Z,19.45
2022-08-22T21:51:45.972Z,19.38
2022-08-22T21:54:39.831Z,19.29
2022-08-22T21:57:12.763Z,19.24
2022-08-22T21:59:59.507Z,19.19
2022-08-22T22:02:43.795Z,19.12
2022-08-22T22:05:18.140Z,19.06
2022-08-22T22:07:50.638Z,19.00
2022-08-22T22:10:23.389Z,18.95
2022-08-22T22:13:00.474Z,18.91
2022-08-22T22:15:40.710Z,18.87
2022-08-22T22:18:17.765Z,18.83
2022-08-22T22:20:54.357Z,18.80
2022-08-22T22:23:27.893Z,18.75
2022-08-22T22:26:04.622Z,18.71
2022-08-22T22:28:47.427Z,18.69
2022-08-22T22:31:20.007Z,18.65
2022-08-22T22:33:52.495Z,18.60
2022-08-22T22:36:27.523Z,18.55
2022-08-22T22:39:00.374Z,18.50
2022-08-22T22:41:32.923Z,18.42
2022-08-22T22:44:05.462Z,18.35
2022-08-22T22:46:37.966Z,18.28
2022-08-22T22:49:10.470Z,18.22
2022-08-22T22:51:42.944Z,18.15
2022-08-22T22:54:15.484Z,18.10
2022-08-22T22:56:48.208Z,18.04
2022-08-22T22:59:25.967Z,17.99
2022-08-22T23:02:20.296Z,17.91
2022-08-22T23:04:55.913Z,17.82
2022-08-22T23:07:28.469Z,17.77
2022-08-22T23:10:08.005Z,17.71
2022-08-22T23:12:40.672Z,17.63
2022-08-22T23:15:13.494Z,17.56
2022-08-22T23:17:46.250Z,17.50
2022-08-22T23:20:19.416Z,17.44
2022-08-22T23:22:52.001Z,17.41
2022-08-22T23:25:24.538Z,17.34
2022-08-22T23:27:57.814Z,17.30
2022-08-22T23:30:31.265Z,17.26
2022-08-22T23:33:03.926Z,17.22
2022-08-22T23:35:36.447Z,17.17
2022-08-22T23:38:08.953Z,17.12
2022-08-22T23:40:41.464Z,17.09
2022-08-22T23:43:13.965Z,17.04
2022-08-22T23:45:46.479Z,16.99
2022-08-22T23:48:18.993Z,16.94
2022-08-22T23:50:51.488Z,16.89
2022-08-22T23:53:24.433Z,16.85
2022-08-22T23:55:57.465Z,16.83
2022-08-22T23:58:33.668Z,16.77
